sensor_id;sensor_type;location;lat;lon;timestamp;P1;durP1;ratioP1;P2;durP2;ratioP2
74543;SDS011;63016;55.030;38.710;2023-04-02T00:00:31;45.78;;;19.60;;
74543;SDS011;63016;55.030;38.710;2023-04-02T00:07:54;39.70;;;17.83;;
74543;SDS011;63016;55.030;38.710;2023-04-02T00:10:25;40.40;;;18.23;;
74543;SDS011;63016;55.030;38.710;2023-04-02T00:13:16;38.08;;;18.67;;
74543;SDS011;63016;55.030;38.710;2023-04-02T00:15:48;41.63;;;18.70;;
74543;SDS011;63016;55.030;38.710;2023-04-02T00:18:21;42.08;;;18.33;;
74543;SDS011;63016;55.030;38.710;2023-04-02T00:20:49;44.45;;;19.50;;
74543;SDS011;63016;55.030;38.710;2023-04-02T00:23:20;35.47;;;17.00;;
74543;SDS011;63016;55.030;38.710;2023-04-02T00:25:46;40.70;;;18.15;;
74543;SDS011;63016;55.030;38.710;2023-04-02T00:28:13;33.97;;;17.17;;
74543;SDS011;63016;55.030;38.710;2023-04-02T00:30:50;39.72;;;18.08;;
74543;SDS011;63016;55.030;38.710;2023-04-02T00:33:18;38.03;;;16.88;;
74543;SDS011;63016;55.030;38.710;2023-04-02T00:35:46;37.35;;;17.33;;
74543;SDS011;63016;55.030;38.710;2023-04-02T00:38:25;38.53;;;16.55;;
74543;SDS011;63016;55.030;38.710;2023-04-02T00:41:04;32.67;;;15.73;;
74543;SDS011;63016;55.030;38.710;2023-04-02T00:43:33;36.13;;;17.25;;
74543;SDS011;63016;55.030;38.710;2023-04-02T00:46:03;34.97;;;16.35;;
74543;SDS011;63016;55.030;38.710;2023-04-02T00:49:35;37.78;;;16.88;;
74543;SDS011;63016;55.030;38.710;2023-04-02T00:51:47;33.72;;;15.98;;
74543;SDS011;63016;55.030;38.710;2023-04-02T00:54:18;34.30;;;16.00;;
74543;SDS011;63016;55.030;38.710;2023-04-02T00:56:48;31.88;;;15.00;;
74543;SDS011;63016;55.030;38.710;2023-04-02T00:59:24;27.42;;;14.80;;
74543;SDS011;63016;55.030;38.710;2023-04-02T01:01:56;32.53;;;15.80;;
74543;SDS011;63016;55.030;38.710;2023-04-02T01:04:50;29.55;;;14.10;;
74543;SDS011;63016;55.030;38.710;2023-04-02T01:07:18;33.22;;;15.20;;
74543;SDS011;63016;55.030;38.710;2023-04-02T01:12:39;28.45;;;14.10;;
74543;SDS011;63016;55.030;38.710;2023-04-02T01:15:24;30.10;;;14.23;;
74543;SDS011;63016;55.030;38.710;2023-04-02T01:23:34;26.88;;;13.85;;
74543;SDS011;63016;55.030;38.710;2023-04-02T01:26:33;27.27;;;13.07;;
74543;SDS011;63016;55.030;38.710;2023-04-02T01:29:15;25.05;;;12.27;;
74543;SDS011;63016;55.030;38.710;2023-04-02T01:31:47;24.13;;;12.63;;
74543;SDS011;63016;55.030;38.710;2023-04-02T01:34:17;26.98;;;12.55;;
74543;SDS011;63016;55.030;38.710;2023-04-02T01:39:36;24.23;;;11.32;;
74543;SDS011;63016;55.030;38.710;2023-04-02T01:47:14;23.83;;;11.75;;
74543;SDS011;63016;55.030;38.710;2023-04-02T01:49:42;21.70;;;11.00;;
74543;SDS011;63016;55.030;38.710;2023-04-02T01:52:12;23.05;;;11.57;;
74543;SDS011;63016;55.030;38.710;2023-04-02T01:54:41;22.95;;;10.90;;
74543;SDS011;63016;55.030;38.710;2023-04-02T01:57:07;22.40;;;11.52;;
74543;SDS011;63016;55.030;38.710;2023-04-02T01:59:33;23.73;;;10.73;;
74543;SDS011;63016;55.030;38.710;2023-04-02T02:02:06;20.40;;;10.88;;
74543;SDS011;63016;55.030;38.710;2023-04-02T02:04:36;26.27;;;11.38;;
74543;SDS011;63016;55.030;38.710;2023-04-02T02:07:02;27.98;;;11.98;;
74543;SDS011;63016;55.030;38.710;2023-04-02T02:09:29;21.48;;;10.57;;
74543;SDS011;63016;55.030;38.710;2023-04-02T02:12:02;25.48;;;11.10;;
74543;SDS011;63016;55.030;38.710;2023-04-02T02:14:29;22.90;;;10.80;;
74543;SDS011;63016;55.030;38.710;2023-04-02T02:16:59;20.95;;;10.75;;
74543;SDS011;63016;55.030;38.710;2023-04-02T02:24:48;22.73;;;11.40;;
74543;SDS011;63016;55.030;38.710;2023-04-02T02:29:48;29.02;;;11.15;;
74543;SDS011;63016;55.030;38.710;2023-04-02T02:32:19;25.40;;;12.45;;
74543;SDS011;63016;55.030;38.710;2023-04-02T02:34:53;28.10;;;13.75;;
74543;SDS011;63016;55.030;38.710;2023-04-02T02:37:26;26.58;;;12.43;;
74543;SDS011;63016;55.030;38.710;2023-04-02T02:39:55;23.40;;;12.43;;
74543;SDS011;63016;55.030;38.710;2023-04-02T02:45:11;27.25;;;12.90;;
74543;SDS011;63016;55.030;38.710;2023-04-02T02:47:41;29.20;;;14.18;;
74543;SDS011;63016;55.030;38.710;2023-04-02T02:50:19;26.38;;;13.45;;
74543;SDS011;63016;55.030;38.710;2023-04-02T02:52:52;28.23;;;14.23;;
74543;SDS011;63016;55.030;38.710;2023-04-02T02:55:26;30.67;;;14.50;;
74543;SDS011;63016;55.030;38.710;2023-04-02T02:57:55;29.95;;;14.13;;
74543;SDS011;63016;55.030;38.710;2023-04-02T03:00:29;30.27;;;14.13;;
74543;SDS011;63016;55.030;38.710;2023-04-02T03:02:55;31.08;;;14.43;;
74543;SDS011;63016;55.030;38.710;2023-04-02T03:05:22;33.78;;;13.90;;
74543;SDS011;63016;55.030;38.710;2023-04-02T03:07:51;32.85;;;15.75;;
74543;SDS011;63016;55.030;38.710;2023-04-02T03:10:32;31.40;;;14.82;;
74543;SDS011;63016;55.030;38.710;2023-04-02T03:21:43;29.83;;;14.82;;
74543;SDS011;63016;55.030;38.710;2023-04-02T03:24:30;33.90;;;15.57;;
74543;SDS011;63016;55.030;38.710;2023-04-02T03:30:12;30.25;;;15.25;;
74543;SDS011;63016;55.030;38.710;2023-04-02T03:33:02;31.40;;;13.82;;
74543;SDS011;63016;55.030;38.710;2023-04-02T03:35:34;30.08;;;14.88;;
74543;SDS011;63016;55.030;38.710;2023-04-02T03:38:15;29.52;;;14.63;;
74543;SDS011;63016;55.030;38.710;2023-04-02T03:41:00;27.73;;;14.45;;
74543;SDS011;63016;55.030;38.710;2023-04-02T03:43:35;30.77;;;14.68;;
74543;SDS011;63016;55.030;38.710;2023-04-02T03:46:15;31.00;;;14.48;;
74543;SDS011;63016;55.030;38.710;2023-04-02T03:48:58;30.15;;;14.57;;
74543;SDS011;63016;55.030;38.710;2023-04-02T03:51:39;27.73;;;13.80;;
74543;SDS011;63016;55.030;38.710;2023-04-02T03:54:21;29.65;;;14.52;;
74543;SDS011;63016;55.030;38.710;2023-04-02T03:56:47;31.27;;;14.57;;
74543;SDS011;63016;55.030;38.710;2023-04-02T04:05:04;29.95;;;15.40;;
74543;SDS011;63016;55.030;38.710;2023-04-02T04:07:42;34.83;;;15.73;;
74543;SDS011;63016;55.030;38.710;2023-04-02T04:10:13;29.05;;;13.88;;
74543;SDS011;63016;55.030;38.710;2023-04-02T04:12:47;28.55;;;14.18;;
74543;SDS011;63016;55.030;38.710;2023-04-02T04:15:16;33.28;;;14.27;;
74543;SDS011;63016;55.030;38.710;2023-04-02T04:23:08;28.90;;;14.10;;
74543;SDS011;63016;55.030;38.710;2023-04-02T04:25:41;29.25;;;13.57;;
74543;SDS011;63016;55.030;38.710;2023-04-02T04:28:24;34.40;;;14.82;;
74543;SDS011;63016;55.030;38.710;2023-04-02T04:30:59;31.45;;;14.15;;
74543;SDS011;63016;55.030;38.710;2023-04-02T04:33:32;30.77;;;13.73;;
74543;SDS011;63016;55.030;38.710;2023-04-02T04:36:04;32.25;;;14.43;;
74543;SDS011;63016;55.030;38.710;2023-04-02T04:38:44;33.65;;;13.68;;
74543;SDS011;63016;55.030;38.710;2023-04-02T04:41:20;31.13;;;14.45;;
74543;SDS011;63016;55.030;38.710;2023-04-02T04:43:55;28.48;;;13.40;;
74543;SDS011;63016;55.030;38.710;2023-04-02T04:46:31;31.52;;;12.93;;
74543;SDS011;63016;55.030;38.710;2023-04-02T04:49:21;28.13;;;13.32;;
74543;SDS011;63016;55.030;38.710;2023-04-02T04:51:50;28.25;;;13.73;;
74543;SDS011;63016;55.030;38.710;2023-04-02T04:54:18;31.02;;;13.35;;
74543;SDS011;63016;55.030;38.710;2023-04-02T04:56:49;34.97;;;13.82;;
74543;SDS011;63016;55.030;38.710;2023-04-02T04:59:29;29.70;;;13.15;;
74543;SDS011;63016;55.030;38.710;2023-04-02T05:02:11;29.90;;;12.73;;
74543;SDS011;63016;55.030;38.710;2023-04-02T05:04:47;30.92;;;12.77;;
74543;SDS011;63016;55.030;38.710;2023-04-02T05:07:22;26.67;;;12.55;;
74543;SDS011;63016;55.030;38.710;2023-04-02T05:09:54;28.95;;;12.38;;
74543;SDS011;63016;55.030;38.710;2023-04-02T05:17:29;33.50;;;11.77;;
74543;SDS011;63016;55.030;38.710;2023-04-02T05:20:34;26.92;;;11.20;;
74543;SDS011;63016;55.030;38.710;2023-04-02T05:23:09;27.52;;;11.07;;
74543;SDS011;63016;55.030;38.710;2023-04-02T05:25:37;25.25;;;10.68;;
74543;SDS011;63016;55.030;38.710;2023-04-02T05:28:28;27.73;;;10.98;;
74543;SDS011;63016;55.030;38.710;2023-04-02T05:31:11;24.83;;;11.27;;
74543;SDS011;63016;55.030;38.710;2023-04-02T05:33:46;25.55;;;10.82;;
74543;SDS011;63016;55.030;38.710;2023-04-02T05:36:21;23.73;;;10.13;;
74543;SDS011;63016;55.030;38.710;2023-04-02T05:38:57;29.10;;;11.10;;
74543;SDS011;63016;55.030;38.710;2023-04-02T05:41:27;24.15;;;9.25;;
74543;SDS011;63016;55.030;38.710;2023-04-02T05:44:05;24.02;;;9.98;;
74543;SDS011;63016;55.030;38.710;2023-04-02T05:46:40;30.10;;;10.25;;
74543;SDS011;63016;55.030;38.710;2023-04-02T05:49:14;19.77;;;8.98;;
74543;SDS011;63016;55.030;38.710;2023-04-02T05:51:49;22.17;;;9.40;;
74543;SDS011;63016;55.030;38.710;2023-04-02T05:54:21;22.17;;;9.00;;
74543;SDS011;63016;55.030;38.710;2023-04-02T05:56:56;22.05;;;8.43;;
74543;SDS011;63016;55.030;38.710;2023-04-02T06:02:02;15.68;;;7.30;;
74543;SDS011;63016;55.030;38.710;2023-04-02T06:07:15;18.90;;;7.97;;
74543;SDS011;63016;55.030;38.710;2023-04-02T06:12:35;18.08;;;8.43;;
74543;SDS011;63016;55.030;38.710;2023-04-02T06:15:12;16.85;;;7.80;;
74543;SDS011;63016;55.030;38.710;2023-04-02T06:17:46;14.35;;;7.40;;
74543;SDS011;63016;55.030;38.710;2023-04-02T06:20:15;15.57;;;7.18;;
74543;SDS011;63016;55.030;38.710;2023-04-02T06:22:43;15.38;;;7.85;;
74543;SDS011;63016;55.030;38.710;2023-04-02T06:27:42;18.33;;;7.40;;
74543;SDS011;63016;55.030;38.710;2023-04-02T06:30:17;16.67;;;7.07;;
74543;SDS011;63016;55.030;38.710;2023-04-02T06:32:48;14.38;;;6.93;;
74543;SDS011;63016;55.030;38.710;2023-04-02T06:35:14;14.98;;;7.40;;
74543;SDS011;63016;55.030;38.710;2023-04-02T06:37:41;14.93;;;7.55;;
74543;SDS011;63016;55.030;38.710;2023-04-02T06:43:16;12.40;;;6.38;;
74543;SDS011;63016;55.030;38.710;2023-04-02T06:45:51;15.53;;;7.37;;
74543;SDS011;63016;55.030;38.710;2023-04-02T06:48:20;12.63;;;6.40;;
74543;SDS011;63016;55.030;38.710;2023-04-02T06:50:56;14.57;;;6.80;;
74543;SDS011;63016;55.030;38.710;2023-04-02T06:53:33;13.02;;;7.30;;
74543;SDS011;63016;55.030;38.710;2023-04-02T06:56:19;14.25;;;6.68;;
74543;SDS011;63016;55.030;38.710;2023-04-02T06:59:05;15.13;;;7.65;;
74543;SDS011;63016;55.030;38.710;2023-04-02T07:01:36;16.15;;;7.80;;
74543;SDS011;63016;55.030;38.710;2023-04-02T07:04:09;19.45;;;7.78;;
74543;SDS011;63016;55.030;38.710;2023-04-02T07:06:35;16.23;;;7.57;;
74543;SDS011;63016;55.030;38.710;2023-04-02T07:09:01;13.90;;;7.22;;
74543;SDS011;63016;55.030;38.710;2023-04-02T07:11:27;12.98;;;7.45;;
74543;SDS011;63016;55.030;38.710;2023-04-02T07:13:53;18.35;;;7.43;;
74543;SDS011;63016;55.030;38.710;2023-04-02T07:16:20;12.13;;;7.30;;
74543;SDS011;63016;55.030;38.710;2023-04-02T07:18:49;16.25;;;7.93;;
74543;SDS011;63016;55.030;38.710;2023-04-02T07:21:14;16.38;;;7.88;;
74543;SDS011;63016;55.030;38.710;2023-04-02T07:23:40;17.05;;;8.00;;
74543;SDS011;63016;55.030;38.710;2023-04-02T07:26:06;16.25;;;7.82;;
74543;SDS011;63016;55.030;38.710;2023-04-02T07:28:33;15.40;;;7.72;;
74543;SDS011;63016;55.030;38.710;2023-04-02T07:30:59;18.30;;;8.65;;
74543;SDS011;63016;55.030;38.710;2023-04-02T07:33:26;15.70;;;7.75;;
74543;SDS011;63016;55.030;38.710;2023-04-02T07:35:54;15.98;;;8.52;;
74543;SDS011;63016;55.030;38.710;2023-04-02T07:38:21;16.42;;;8.18;;
74543;SDS011;63016;55.030;38.710;2023-04-02T07:40:47;15.63;;;7.75;;
74543;SDS011;63016;55.030;38.710;2023-04-02T07:43:13;14.50;;;8.00;;
74543;SDS011;63016;55.030;38.710;2023-04-02T07:45:38;18.77;;;8.45;;
74543;SDS011;63016;55.030;38.710;2023-04-02T07:48:04;21.45;;;8.68;;
74543;SDS011;63016;55.030;38.710;2023-04-02T07:50:31;23.33;;;8.32;;
74543;SDS011;63016;55.030;38.710;2023-04-02T07:52:56;18.00;;;8.77;;
74543;SDS011;63016;55.030;38.710;2023-04-02T07:55:22;17.15;;;8.60;;
74543;SDS011;63016;55.030;38.710;2023-04-02T07:57:49;15.93;;;8.82;;
74543;SDS011;63016;55.030;38.710;2023-04-02T08:00:16;16.17;;;8.20;;
74543;SDS011;63016;55.030;38.710;2023-04-02T08:02:42;17.42;;;8.25;;
74543;SDS011;63016;55.030;38.710;2023-04-02T08:05:08;18.40;;;8.55;;
74543;SDS011;63016;55.030;38.710;2023-04-02T08:07:35;16.38;;;8.55;;
74543;SDS011;63016;55.030;38.710;2023-04-02T08:10:01;19.98;;;8.88;;
74543;SDS011;63016;55.030;38.710;2023-04-02T08:12:28;18.60;;;7.80;;
74543;SDS011;63016;55.030;38.710;2023-04-02T08:14:54;18.88;;;8.48;;
74543;SDS011;63016;55.030;38.710;2023-04-02T08:17:22;26.65;;;9.50;;
74543;SDS011;63016;55.030;38.710;2023-04-02T08:19:47;24.05;;;9.63;;
74543;SDS011;63016;55.030;38.710;2023-04-02T08:22:13;17.20;;;8.55;;
74543;SDS011;63016;55.030;38.710;2023-04-02T08:24:38;19.83;;;9.05;;
74543;SDS011;63016;55.030;38.710;2023-04-02T08:27:04;18.77;;;9.13;;
74543;SDS011;63016;55.030;38.710;2023-04-02T08:29:30;17.50;;;7.50;;
74543;SDS011;63016;55.030;38.710;2023-04-02T08:31:59;19.75;;;9.05;;
74543;SDS011;63016;55.030;38.710;2023-04-02T08:34:26;26.75;;;8.68;;
74543;SDS011;63016;55.030;38.710;2023-04-02T08:36:56;18.67;;;9.52;;
74543;SDS011;63016;55.030;38.710;2023-04-02T08:39:22;21.70;;;8.82;;
74543;SDS011;63016;55.030;38.710;2023-04-02T08:47:00;22.42;;;9.23;;
74543;SDS011;63016;55.030;38.710;2023-04-02T08:52:23;22.88;;;9.65;;
74543;SDS011;63016;55.030;38.710;2023-04-02T08:54:55;18.70;;;9.40;;
74543;SDS011;63016;55.030;38.710;2023-04-02T09:05:59;18.92;;;9.90;;
74543;SDS011;63016;55.030;38.710;2023-04-02T09:08:26;21.20;;;9.25;;
74543;SDS011;63016;55.030;38.710;2023-04-02T09:13:34;19.40;;;9.60;;
74543;SDS011;63016;55.030;38.710;2023-04-02T09:16:10;18.25;;;9.43;;
74543;SDS011;63016;55.030;38.710;2023-04-02T09:18:38;19.98;;;10.25;;
74543;SDS011;63016;55.030;38.710;2023-04-02T09:23:42;16.88;;;8.10;;
74543;SDS011;63016;55.030;38.710;2023-04-02T09:26:21;18.25;;;9.32;;
74543;SDS011;63016;55.030;38.710;2023-04-02T09:28:51;18.60;;;9.25;;
74543;SDS011;63016;55.030;38.710;2023-04-02T09:31:21;21.88;;;9.90;;
74543;SDS011;63016;55.030;38.710;2023-04-02T09:36:53;18.23;;;9.40;;
74543;SDS011;63016;55.030;38.710;2023-04-02T09:39:24;25.02;;;10.15;;
74543;SDS011;63016;55.030;38.710;2023-04-02T09:41:50;21.63;;;9.63;;
74543;SDS011;63016;55.030;38.710;2023-04-02T09:44:27;22.50;;;9.88;;
74543;SDS011;63016;55.030;38.710;2023-04-02T09:47:05;23.63;;;10.32;;
74543;SDS011;63016;55.030;38.710;2023-04-02T09:49:48;24.70;;;10.77;;
74543;SDS011;63016;55.030;38.710;2023-04-02T09:55:09;24.85;;;10.05;;
74543;SDS011;63016;55.030;38.710;2023-04-02T09:57:41;25.75;;;9.57;;
74543;SDS011;63016;55.030;38.710;2023-04-02T10:00:08;27.08;;;9.60;;
74543;SDS011;63016;55.030;38.710;2023-04-02T10:02:41;23.30;;;10.18;;
74543;SDS011;63016;55.030;38.710;2023-04-02T10:05:20;21.90;;;9.73;;
74543;SDS011;63016;55.030;38.710;2023-04-02T10:07:48;20.33;;;9.13;;
74543;SDS011;63016;55.030;38.710;2023-04-02T10:12:43;18.77;;;8.45;;
74543;SDS011;63016;55.030;38.710;2023-04-02T10:15:16;23.67;;;8.73;;
74543;SDS011;63016;55.030;38.710;2023-04-02T10:17:50;20.25;;;9.07;;
74543;SDS011;63016;55.030;38.710;2023-04-02T10:20:24;22.33;;;8.60;;
74543;SDS011;63016;55.030;38.710;2023-04-02T10:22:52;18.45;;;7.82;;
74543;SDS011;63016;55.030;38.710;2023-04-02T10:25:18;16.30;;;6.80;;
74543;SDS011;63016;55.030;38.710;2023-04-02T10:30:16;18.45;;;6.32;;
74543;SDS011;63016;55.030;38.710;2023-04-02T10:38:05;15.40;;;6.60;;
74543;SDS011;63016;55.030;38.710;2023-04-02T10:41:16;13.38;;;6.22;;
74543;SDS011;63016;55.030;38.710;2023-04-02T10:49:07;15.02;;;6.25;;
74543;SDS011;63016;55.030;38.710;2023-04-02T10:52:03;15.50;;;5.80;;
74543;SDS011;63016;55.030;38.710;2023-04-02T10:54:36;16.08;;;5.82;;
74543;SDS011;63016;55.030;38.710;2023-04-02T10:57:21;17.00;;;6.07;;
74543;SDS011;63016;55.030;38.710;2023-04-02T11:02:40;13.38;;;5.72;;
74543;SDS011;63016;55.030;38.710;2023-04-02T11:05:20;16.15;;;5.40;;
74543;SDS011;63016;55.030;38.710;2023-04-02T11:08:05;10.75;;;5.15;;
74543;SDS011;63016;55.030;38.710;2023-04-02T11:10:42;14.32;;;5.68;;
74543;SDS011;63016;55.030;38.710;2023-04-02T11:13:34;12.43;;;5.75;;
74543;SDS011;63016;55.030;38.710;2023-04-02T11:16:10;10.63;;;4.97;;
74543;SDS011;63016;55.030;38.710;2023-04-02T11:18:39;14.90;;;4.57;;
74543;SDS011;63016;55.030;38.710;2023-04-02T11:21:06;17.52;;;5.35;;
74543;SDS011;63016;55.030;38.710;2023-04-02T11:23:59;13.65;;;5.78;;
74543;SDS011;63016;55.030;38.710;2023-04-02T11:29:11;14.35;;;5.75;;
74543;SDS011;63016;55.030;38.710;2023-04-02T11:32:13;11.18;;;4.93;;
74543;SDS011;63016;55.030;38.710;2023-04-02T11:37:09;12.95;;;5.53;;
74543;SDS011;63016;55.030;38.710;2023-04-02T11:39:55;12.13;;;5.30;;
74543;SDS011;63016;55.030;38.710;2023-04-02T11:44:54;13.32;;;5.20;;
74543;SDS011;63016;55.030;38.710;2023-04-02T11:47:23;9.70;;;4.50;;
74543;SDS011;63016;55.030;38.710;2023-04-02T11:52:23;15.35;;;4.30;;
74543;SDS011;63016;55.030;38.710;2023-04-02T11:54:58;12.88;;;3.97;;
74543;SDS011;63016;55.030;38.710;2023-04-02T11:57:38;7.80;;;4.07;;
74543;SDS011;63016;55.030;38.710;2023-04-02T12:00:50;12.85;;;4.00;;
74543;SDS011;63016;55.030;38.710;2023-04-02T12:11:37;13.05;;;3.50;;
74543;SDS011;63016;55.030;38.710;2023-04-02T12:17:04;18.35;;;3.50;;
74543;SDS011;63016;55.030;38.710;2023-04-02T12:19:39;8.25;;;3.28;;
74543;SDS011;63016;55.030;38.710;2023-04-02T12:22:05;15.05;;;3.22;;
74543;SDS011;63016;55.030;38.710;2023-04-02T12:24:44;11.93;;;2.90;;
74543;SDS011;63016;55.030;38.710;2023-04-02T12:27:23;13.95;;;3.20;;
74543;SDS011;63016;55.030;38.710;2023-04-02T12:29:52;8.25;;;3.35;;
74543;SDS011;63016;55.030;38.710;2023-04-02T12:32:26;6.10;;;2.88;;
74543;SDS011;63016;55.030;38.710;2023-04-02T12:34:54;9.05;;;2.60;;
74543;SDS011;63016;55.030;38.710;2023-04-02T12:37:25;4.55;;;2.22;;
74543;SDS011;63016;55.030;38.710;2023-04-02T12:39:57;7.57;;;3.03;;
74543;SDS011;63016;55.030;38.710;2023-04-02T12:42:34;5.35;;;2.97;;
74543;SDS011;63016;55.030;38.710;2023-04-02T12:45:01;4.78;;;2.30;;
74543;SDS011;63016;55.030;38.710;2023-04-02T12:47:28;8.13;;;2.97;;
74543;SDS011;63016;55.030;38.710;2023-04-02T12:49:55;7.95;;;3.08;;
74543;SDS011;63016;55.030;38.710;2023-04-02T12:52:24;5.55;;;2.50;;
74543;SDS011;63016;55.030;38.710;2023-04-02T12:54:54;6.22;;;2.50;;
74543;SDS011;63016;55.030;38.710;2023-04-02T13:00:02;6.93;;;2.57;;
74543;SDS011;63016;55.030;38.710;2023-04-02T13:05:57;8.05;;;2.33;;
74543;SDS011;63016;55.030;38.710;2023-04-02T13:11:07;4.70;;;2.03;;
74543;SDS011;63016;55.030;38.710;2023-04-02T13:13:36;5.15;;;1.92;;
74543;SDS011;63016;55.030;38.710;2023-04-02T13:18:38;5.55;;;1.63;;
74543;SDS011;63016;55.030;38.710;2023-04-02T13:23:51;3.13;;;1.60;;
74543;SDS011;63016;55.030;38.710;2023-04-02T13:28:55;4.70;;;1.92;;
74543;SDS011;63016;55.030;38.710;2023-04-02T13:31:25;3.55;;;1.73;;
74543;SDS011;63016;55.030;38.710;2023-04-02T13:33:51;3.03;;;1.92;;
74543;SDS011;63016;55.030;38.710;2023-04-02T13:36:17;5.10;;;1.73;;
74543;SDS011;63016;55.030;38.710;2023-04-02T13:38:42;2.17;;;1.65;;
74543;SDS011;63016;55.030;38.710;2023-04-02T13:41:10;5.93;;;2.15;;
74543;SDS011;63016;55.030;38.710;2023-04-02T13:43:45;3.50;;;1.77;;
74543;SDS011;63016;55.030;38.710;2023-04-02T13:46:15;3.22;;;1.63;;
74543;SDS011;63016;55.030;38.710;2023-04-02T13:48:48;4.38;;;2.03;;
74543;SDS011;63016;55.030;38.710;2023-04-02T13:51:17;3.97;;;1.90;;
74543;SDS011;63016;55.030;38.710;2023-04-02T13:53:45;5.03;;;1.73;;
74543;SDS011;63016;55.030;38.710;2023-04-02T13:56:14;4.53;;;1.60;;
74543;SDS011;63016;55.030;38.710;2023-04-02T13:58:40;5.53;;;1.65;;
74543;SDS011;63016;55.030;38.710;2023-04-02T14:01:06;2.85;;;1.92;;
74543;SDS011;63016;55.030;38.710;2023-04-02T14:03:32;3.92;;;1.83;;
74543;SDS011;63016;55.030;38.710;2023-04-02T14:13:43;2.53;;;1.98;;
74543;SDS011;63016;55.030;38.710;2023-04-02T14:19:30;4.15;;;1.67;;
74543;SDS011;63016;55.030;38.710;2023-04-02T14:22:16;3.30;;;1.90;;
74543;SDS011;63016;55.030;38.710;2023-04-02T14:27:40;4.25;;;1.60;;
74543;SDS011;63016;55.030;38.710;2023-04-02T14:35:53;4.72;;;1.83;;
74543;SDS011;63016;55.030;38.710;2023-04-02T14:44:08;3.85;;;1.58;;
74543;SDS011;63016;55.030;38.710;2023-04-02T14:46:36;6.90;;;1.70;;
74543;SDS011;63016;55.030;38.710;2023-04-02T14:51:51;5.25;;;1.55;;
74543;SDS011;63016;55.030;38.710;2023-04-02T14:57:05;6.78;;;1.60;;
74543;SDS011;63016;55.030;38.710;2023-04-02T15:08:02;10.45;;;1.70;;
74543;SDS011;63016;55.030;38.710;2023-04-02T15:10:43;19.40;;;1.60;;
74543;SDS011;63016;55.030;38.710;2023-04-02T15:13:15;6.55;;;1.27;;
74543;SDS011;63016;55.030;38.710;2023-04-02T15:18:12;3.40;;;1.40;;
74543;SDS011;63016;55.030;38.710;2023-04-02T15:23:30;5.07;;;1.42;;
74543;SDS011;63016;55.030;38.710;2023-04-02T15:34:51;2.45;;;1.48;;
74543;SDS011;63016;55.030;38.710;2023-04-02T15:39:54;3.95;;;1.50;;
74543;SDS011;63016;55.030;38.710;2023-04-02T15:42:34;4.17;;;1.40;;
74543;SDS011;63016;55.030;38.710;2023-04-02T15:47:51;5.32;;;1.90;;
74543;SDS011;63016;55.030;38.710;2023-04-02T15:52:57;15.20;;;2.05;;
74543;SDS011;63016;55.030;38.710;2023-04-02T15:55:44;12.73;;;1.90;;
74543;SDS011;63016;55.030;38.710;2023-04-02T15:58:24;11.48;;;2.20;;
74543;SDS011;63016;55.030;38.710;2023-04-02T16:12:39;3.83;;;1.63;;
74543;SDS011;63016;55.030;38.710;2023-04-02T16:18:02;4.97;;;1.70;;
74543;SDS011;63016;55.030;38.710;2023-04-02T16:20:56;4.30;;;1.73;;
74543;SDS011;63016;55.030;38.710;2023-04-02T16:23:28;8.95;;;1.92;;
74543;SDS011;63016;55.030;38.710;2023-04-02T16:31:52;10.10;;;2.33;;
74543;SDS011;63016;55.030;38.710;2023-04-02T16:37:25;8.35;;;2.00;;
74543;SDS011;63016;55.030;38.710;2023-04-02T16:40:01;4.53;;;2.13;;
74543;SDS011;63016;55.030;38.710;2023-04-02T16:42:53;5.82;;;2.45;;
74543;SDS011;63016;55.030;38.710;2023-04-02T16:51:47;4.45;;;2.40;;
74543;SDS011;63016;55.030;38.710;2023-04-02T16:54:30;3.38;;;2.00;;
74543;SDS011;63016;55.030;38.710;2023-04-02T16:57:28;7.45;;;2.25;;
74543;SDS011;63016;55.030;38.710;2023-04-02T17:06:42;4.65;;;2.42;;
74543;SDS011;63016;55.030;38.710;2023-04-02T17:08:59;4.50;;;2.17;;
74543;SDS011;63016;55.030;38.710;2023-04-02T17:11:35;4.75;;;2.42;;
74543;SDS011;63016;55.030;38.710;2023-04-02T17:14:11;4.82;;;2.55;;
74543;SDS011;63016;55.030;38.710;2023-04-02T17:17:07;4.00;;;2.05;;
74543;SDS011;63016;55.030;38.710;2023-04-02T17:19:38;5.13;;;2.30;;
74543;SDS011;63016;55.030;38.710;2023-04-02T17:22:08;4.43;;;2.40;;
74543;SDS011;63016;55.030;38.710;2023-04-02T17:24:55;4.60;;;2.70;;
74543;SDS011;63016;55.030;38.710;2023-04-02T17:27:40;3.97;;;2.58;;
74543;SDS011;63016;55.030;38.710;2023-04-02T17:30:16;5.50;;;2.33;;
74543;SDS011;63016;55.030;38.710;2023-04-02T17:32:46;6.80;;;2.65;;
74543;SDS011;63016;55.030;38.710;2023-04-02T17:40:33;5.70;;;2.92;;
74543;SDS011;63016;55.030;38.710;2023-04-02T17:45:54;5.10;;;2.35;;
74543;SDS011;63016;55.030;38.710;2023-04-02T17:51:20;10.38;;;2.22;;
74543;SDS011;63016;55.030;38.710;2023-04-02T17:54:00;5.20;;;2.30;;
74543;SDS011;63016;55.030;38.710;2023-04-02T17:56:40;8.85;;;2.08;;
74543;SDS011;63016;55.030;38.710;2023-04-02T18:10:24;5.25;;;2.60;;
74543;SDS011;63016;55.030;38.710;2023-04-02T18:24:45;4.50;;;2.25;;
74543;SDS011;63016;55.030;38.710;2023-04-02T18:27:41;5.75;;;2.90;;
74543;SDS011;63016;55.030;38.710;2023-04-02T18:35:57;3.72;;;2.20;;
74543;SDS011;63016;55.030;38.710;2023-04-02T18:38:43;4.38;;;2.25;;
74543;SDS011;63016;55.030;38.710;2023-04-02T18:41:20;3.92;;;3.05;;
74543;SDS011;63016;55.030;38.710;2023-04-02T18:46:50;5.40;;;2.72;;
74543;SDS011;63016;55.030;38.710;2023-04-02T18:51:43;8.88;;;3.20;;
74543;SDS011;63016;55.030;38.710;2023-04-02T18:57:00;4.90;;;2.50;;
74543;SDS011;63016;55.030;38.710;2023-04-02T18:59:37;7.30;;;3.17;;
74543;SDS011;63016;55.030;38.710;2023-04-02T19:02:36;6.10;;;3.50;;
74543;SDS011;63016;55.030;38.710;2023-04-02T19:08:01;9.07;;;3.38;;
74543;SDS011;63016;55.030;38.710;2023-04-02T19:10:58;7.03;;;3.40;;
74543;SDS011;63016;55.030;38.710;2023-04-02T19:13:28;5.78;;;3.28;;
74543;SDS011;63016;55.030;38.710;2023-04-02T19:18:42;9.27;;;3.60;;
74543;SDS011;63016;55.030;38.710;2023-04-02T19:21:32;7.35;;;2.85;;
74543;SDS011;63016;55.030;38.710;2023-04-02T19:29:41;8.18;;;3.63;;
74543;SDS011;63016;55.030;38.710;2023-04-02T19:32:29;7.38;;;3.42;;
74543;SDS011;63016;55.030;38.710;2023-04-02T19:35:09;8.80;;;3.63;;
74543;SDS011;63016;55.030;38.710;2023-04-02T19:37:42;8.63;;;3.22;;
74543;SDS011;63016;55.030;38.710;2023-04-02T19:42:47;5.72;;;3.33;;
74543;SDS011;63016;55.030;38.710;2023-04-02T19:45:58;7.20;;;3.80;;
74543;SDS011;63016;55.030;38.710;2023-04-02T19:50:43;7.75;;;3.67;;
74543;SDS011;63016;55.030;38.710;2023-04-02T19:53:10;5.97;;;3.47;;
74543;SDS011;63016;55.030;38.710;2023-04-02T19:55:36;9.07;;;4.15;;
74543;SDS011;63016;55.030;38.710;2023-04-02T19:58:03;6.90;;;3.05;;
74543;SDS011;63016;55.030;38.710;2023-04-02T20:00:28;7.95;;;3.17;;
74543;SDS011;63016;55.030;38.710;2023-04-02T20:02:54;8.90;;;3.65;;
74543;SDS011;63016;55.030;38.710;2023-04-02T20:05:20;5.47;;;3.15;;
74543;SDS011;63016;55.030;38.710;2023-04-02T20:07:45;9.20;;;4.10;;
74543;SDS011;63016;55.030;38.710;2023-04-02T20:10:11;9.23;;;3.47;;
74543;SDS011;63016;55.030;38.710;2023-04-02T20:12:36;7.20;;;3.47;;
74543;SDS011;63016;55.030;38.710;2023-04-02T20:15:03;9.45;;;3.67;;